Latest Weather Observations for Forbes

IDN60801

Issued at 10:35 pm EDT Thursday 27 November 2014 (issued every 30 minutes, with the page automatically refreshed every 10 minutes)

About weather observations | Map of weather stations | Latest weather observations for NSW | Other Formats
Station Details ID: 065103 Name: FORBES AIRPORT AWS Lat: -33.36 Lon: 147.92 Height: 230.4 m
Data from the previous 72 hours. | See also: Recent months at Forbes
Date/Time
EDT
Temp
°C
App
Temp
°C
Dew
Point
Rel
Hum
%
Delta-T
°C
Wind Press
QNH
hPa
Press
MSL
hPa
Rain
since 9 am
mm
Dir
 
Spd
km/h
Gust
km/h
Spd
kts
Gust
kts
27/10:30pm 22.8 17.2 11.5 49 6.4 ENE 32 37 17 20 1018.5 1017.7 0.0
27/10:00pm 23.6 19.5 11.3 46 6.9 ENE 24 33 13 18 1018.0 1017.2 0.0
27/09:30pm 23.6 17.9 11.0 45 7.1 ESE 32 41 17 22 1017.2 1016.4 0.0
27/09:00pm 25.8 21.3 10.0 37 8.8 ESE 24 33 13 18 1016.7 1015.9 0.0
27/08:30pm 25.9 22.7 4.9 26 10.8 SE 11 13 6 7 1016.3 1015.5 0.0
27/08:00pm 27.2 24.0 4.9 24 11.5 SSE 11 13 6 7 1016.0 1015.2 0.0
27/07:30pm 29.3 25.5 4.0 20 13.0 SSE 13 20 7 11 1015.8 1015.0 0.0
27/07:00pm 30.6 27.5 3.6 18 13.9 SSW 9 15 5 8 1015.6 1014.8 0.0
27/06:30pm 30.9 26.8 2.2 16 14.5 S 13 22 7 12 1015.3 1014.5 0.0
27/06:00pm 30.9 26.8 2.2 16 14.5 S 13 22 7 12 1015.2 1014.4 0.0
27/05:30pm 30.9 26.6 3.0 17 14.3 S 15 22 8 12 1015.2 1014.4 0.0
27/05:00pm 31.4 25.9 4.2 18 14.2 S 22 30 12 16 1015.3 1014.5 0.0
27/04:30pm 31.4 27.3 4.2 18 14.2 SSW 15 26 8 14 1015.4 1014.6 0.0
27/04:00pm 30.4 27.3 3.4 18 13.8 SE 9 13 5 7 1015.8 1015.0 0.0
27/03:30pm 31.4 28.4 5.8 20 13.7 W 11 15 6 8 1016.1 1015.3 0.0
27/03:00pm 30.8 26.4 4.5 19 13.8 WSW 17 43 9 23 1016.3 1015.5 0.0
27/02:30pm 30.1 26.6 5.4 21 13.1 SW 13 24 7 13 1016.7 1015.9 0.0
27/02:00pm 29.8 26.9 6.5 23 12.5 SE 11 19 6 10 1017.1 1016.3 0.0
27/01:30pm 29.1 26.2 6.5 24 12.1 SSW 11 15 6 8 1017.5 1016.7 0.0
27/01:00pm 28.1 24.4 6.2 25 11.6 SW 15 22 8 12 1018.0 1017.2 0.0
27/12:30pm 27.7 24.4 6.5 26 11.3 NE 13 22 7 12 1018.4 1017.6 0.0
27/12:00pm 28.4 25.4 7.6 27 11.3 NNE 13 22 7 12 1018.6 1017.8 0.0
27/11:30am 27.2 24.3 6.6 27 11.0 SSE 11 22 6 12 1018.8 1018.0 0.0
27/11:00am 26.2 24.2 7.3 30 10.1 SW 7 17 4 9 1019.0 1018.2 0.0
27/10:30am 25.3 23.5 9.6 37 8.7 ENE 9 15 5 8 1019.2 1018.4 0.0
27/10:00am 24.7 23.2 10.6 41 7.9 E 9 17 5 9 1019.3 1018.5 0.0
27/09:30am 24.0 22.4 11.7 46 7.0 SE 11 17 6 9 1019.4 1018.6 0.0
27/09:00am 22.1 19.5 10.6 48 6.4 ESE 15 22 8 12 1019.6 1018.8 0.0
27/08:30am 20.4 17.3 10.2 52 5.6 ESE 17 22 9 12 1019.6 1018.8 0.0
27/08:00am 19.1 16.2 8.1 49 5.7 ESE 13 20 7 11 1019.5 1018.7 0.0
27/07:30am 16.9 13.7 4.9 45 5.8 S 11 13 6 7 1019.2 1018.4 0.0
27/07:00am 15.1 12.6 4.8 50 4.9 S 7 9 4 5 1018.9 1018.1 0.0
27/06:30am 11.9 10.7 4.4 60 3.4 CALM 0 6 0 3 1018.7 1017.9 0.0
27/06:00am 12.3 9.2 3.8 56 3.8 S 9 11 5 6 1018.4 1017.6 0.0
27/05:30am 12.7 9.2 3.6 54 4.1 S 11 13 6 7 1018.1 1017.3 0.0
27/05:00am 12.3 8.9 4.0 57 3.8 S 11 15 6 8 1017.7 1016.9 0.0
27/04:30am 11.3 8.5 3.3 58 3.6 SSW 7 11 4 6 1017.3 1016.5 0.0
27/04:00am 12.8 10.1 3.7 54 4.1 S 7 11 4 6 1017.0 1016.2 0.0
27/03:30am 14.0 11.2 2.9 47 5.0 SSE 7 11 4 6 1017.0 1016.2 0.0
27/03:00am 15.4 10.8 3.5 45 5.5 S 17 20 9 11 1017.0 1016.2 0.0
27/02:30am 13.6 9.7 3.4 50 4.6 S 13 15 7 8 1017.2 1016.4 0.0
27/02:00am 14.3 10.7 3.2 47 5.0 SSW 11 13 6 7 1017.4 1016.6 0.0
27/01:30am 15.2 12.0 3.0 44 5.6 S 9 11 5 6 1017.6 1016.8 0.0
27/01:00am 16.8 12.8 2.8 39 6.4 S 13 15 7 8 1017.9 1017.1 0.0
27/12:30am 18.1 13.3 2.8 36 7.1 S 17 20 9 11 1018.1 1017.3 0.0
27/12:00am 17.3 12.9 2.5 37 6.8 S 15 17 8 9 1018.2 1017.4 0.0
 
Date/Time
EDT
Temp
°C
App
Temp
°C
Dew
Point
Rel
Hum
%
Delta-T
°C
Wind Press
QNH
hPa
Press
MSL
hPa
Rain
since 9 am
mm
Dir
 
Spd
km/h
Gust
km/h
Spd
kts
Gust
kts
26/11:30pm 18.1 13.6 2.4 35 7.3 S 15 17 8 9 1018.2 1017.4 0.0
26/11:00pm 18.8 14.2 1.8 32 7.8 S 15 17 8 9 1018.1 1017.3 0.0
26/10:30pm 19.9 15.7 1.8 30 8.4 S 13 17 7 9 1018.1 1017.3 0.0
26/10:00pm 19.1 14.9 1.6 31 8.0 S 13 15 7 8 1017.9 1017.1 0.0
26/09:30pm 20.1 15.9 1.5 29 8.6 S 13 13 7 7 1017.5 1016.7 0.0
26/09:00pm 22.4 17.7 0.9 24 10.0 S 15 19 8 10 1017.1 1016.3 0.0
26/08:30pm 23.1 18.4 0.9 23 10.4 SSW 15 19 8 10 1016.8 1016.0 0.0
26/08:00pm 24.7 19.5 0.3 20 11.4 SSW 17 24 9 13 1016.6 1015.8 0.0
26/07:30pm 25.7 20.9 0.4 19 11.9 SSW 15 20 8 11 1016.3 1015.5 0.0
26/07:00pm 26.4 20.5 -0.6 17 12.5 SSW 20 28 11 15 1016.0 1015.2 0.0
26/06:30pm 27.8 22.0 -0.3 16 13.3 SSW 20 32 11 17 1015.7 1014.9 0.0
26/06:00pm 28.4 22.5 -0.7 15 13.7 SSW 20 26 11 14 1015.3 1014.5 0.0
26/05:30pm 28.6 22.6 -1.5 14 14.0 SSW 20 35 11 19 1015.3 1014.5 0.0
26/05:00pm 28.8 22.8 -1.3 14 14.1 SSW 20 32 11 17 1015.5 1014.7 0.0
26/04:30pm 28.4 22.4 -1.6 14 13.9 SW 20 30 11 16 1015.6 1014.8 0.0
26/04:00pm 28.1 23.0 -1.9 14 13.8 S 15 22 8 12 1015.8 1015.0 0.0
26/03:30pm 28.8 22.8 -1.3 14 14.1 WSW 20 33 11 18 1016.1 1015.3 0.0
26/03:00pm 28.4 21.6 -1.6 14 13.9 SSW 24 35 13 19 1016.5 1015.7 0.0
26/02:30pm 28.0 21.9 -2.0 14 13.8 SW 20 26 11 14 1016.7 1015.9 0.0
26/02:00pm 27.1 21.2 -0.9 16 13.0 SSE 20 24 11 13 1017.0 1016.2 0.0
26/01:30pm 26.4 21.0 -1.4 16 12.7 SSW 17 26 9 14 1017.3 1016.5 0.0
26/01:00pm 26.6 21.7 -0.4 17 12.6 SSE 15 24 8 13 1017.7 1016.9 0.0
26/12:30pm 26.3 20.3 -1.5 16 12.7 SSW 20 33 11 18 1018.2 1017.4 0.0
26/12:00pm 24.7 20.2 -0.4 19 11.5 S 13 20 7 11 1018.6 1017.8 0.0
26/11:30am 24.2 19.9 1.2 22 10.9 SSW 13 24 7 13 1018.9 1018.1 0.0
26/11:00am 23.8 19.6 1.4 23 10.6 SW 13 20 7 11 1019.1 1018.3 0.0
26/10:30am 22.8 18.4 0.6 23 10.3 S 13 20 7 11 1019.2 1018.4 0.0
26/10:00am 21.9 17.9 3.1 29 9.0 SE 13 20 7 11 1019.3 1018.5 0.0
26/09:30am 20.8 16.5 3.5 32 8.3 S 15 20 8 11 1019.6 1018.8 0.0
26/09:00am 20.1 16.4 4.2 35 7.7 S 13 17 7 9 1019.7 1018.9 0.0
26/08:30am 18.3 15.2 3.8 38 6.9 SSE 9 13 5 7 1019.7 1018.9 0.0
26/08:00am 16.6 14.3 4.6 45 5.7 SE 6 9 3 5 1019.6 1018.8 0.0
26/07:30am 14.1 11.6 4.7 53 4.4 SE 7 9 4 5 1019.6 1018.8 0.0
26/07:00am 11.8 9.5 5.9 67 2.8 E 7 11 4 6 1019.3 1018.5 0.0
26/06:30am 9.2 6.7 5.0 75 1.9 S 7 9 4 5 1019.1 1018.3 0.0
26/06:00am 7.0 4.4 4.3 83 1.2 SSW 7 9 4 5 1018.9 1018.1 0.0
26/05:30am 7.1 4.1 4.1 81 1.3 SSW 9 9 5 5 1018.6 1017.8 0.0
26/05:00am 7.2 4.7 3.8 79 1.5 SSW 6 7 3 4 1018.3 1017.5 0.0
26/04:30am 7.5 5.8 3.9 78 1.6 SSE 2 6 1 3 1018.2 1017.4 0.0
26/04:00am 8.3 5.0 4.5 77 1.7 SE 11 13 6 7 1018.1 1017.3 0.0
26/03:30am 8.4 6.1 4.6 77 1.7 ESE 6 9 3 5 1018.3 1017.5 0.0
26/03:00am 8.9 5.8 3.7 70 2.3 SSW 9 11 5 6 1018.2 1017.4 0.0
26/02:30am 10.5 7.8 3.5 62 3.1 SE 7 9 4 5 1018.4 1017.6 0.0
26/02:00am 10.8 7.9 4.7 66 2.8 SSE 9 9 5 5 1018.7 1017.9 0.0
26/01:30am 12.1 9.4 3.6 56 3.8 S 7 9 4 5 1019.0 1018.2 0.0
26/01:00am 12.4 8.4 3.1 53 4.1 S 13 13 7 7 1019.0 1018.2 0.0
26/12:30am 12.7 9.1 3.1 52 4.3 S 11 13 6 7 1019.2 1018.4 0.0
26/12:00am 13.8 9.8 2.7 47 5.0 S 13 15 7 8 1019.5 1018.7 0.0
 
Date/Time
EDT
Temp
°C
App
Temp
°C
Dew
Point
Rel
Hum
%
Delta-T
°C
Wind Press
QNH
hPa
Press
MSL
hPa
Rain
since 9 am
mm
Dir
 
Spd
km/h
Gust
km/h
Spd
kts
Gust
kts
25/11:30pm 14.0 9.9 2.3 45 5.2 S 13 15 7 8 1019.6 1018.8 0.0
25/11:00pm 14.9 10.7 1.4 40 5.9 S 13 15 7 8 1019.5 1018.7 0.0
25/10:30pm 17.3 12.6 0.9 33 7.3 S 15 22 8 12 1019.3 1018.5 0.0
25/10:00pm 17.9 12.8 0.6 31 7.7 S 17 20 9 11 1019.0 1018.2 0.0
25/09:30pm 18.8 13.2 -0.1 28 8.3 S 19 22 10 12 1018.8 1018.0 0.0
25/09:00pm 18.9 13.9 -1.0 26 8.6 SSW 15 20 8 11 1018.5 1017.7 0.0
25/08:30pm 19.6 14.6 -1.5 24 9.1 SSW 15 19 8 10 1018.2 1017.4 0.0
25/08:00pm 20.5 15.7 -2.5 21 9.8 SSW 13 17 7 9 1018.0 1017.2 0.0
25/07:30pm 23.2 17.8 -4.8 15 11.7 SSW 15 24 8 13 1017.6 1016.8 0.0
25/07:00pm 24.8 19.2 -6.5 12 12.9 SSW 15 22 8 12 1017.2 1016.4 0.0
25/06:30pm 25.3 18.9 -7.2 11 13.3 S 19 26 10 14 1016.7 1015.9 0.0
25/06:00pm 25.8 19.3 -8.1 10 13.7 SSW 19 28 10 15 1016.5 1015.7 0.0
25/05:30pm 26.2 19.6 -6.5 11 13.6 S 20 30 11 16 1016.5 1015.7 0.0
25/05:00pm 27.0 21.6 -4.8 12 13.8 SW 15 24 8 13 1016.7 1015.9 0.0
25/04:30pm 26.2 19.8 -6.5 11 13.6 S 19 26 10 14 1016.8 1016.0 0.0
25/04:00pm 25.5 19.2 -6.0 12 13.1 SSW 19 32 10 17 1016.9 1016.1 0.0
25/03:30pm 25.7 20.3 -4.7 13 13.0 SSW 15 24 8 13 1017.1 1016.3 0.0
25/03:00pm 25.3 18.9 -5.1 13 12.9 S 20 30 11 16 1017.3 1016.5 0.0
25/02:30pm 24.5 18.9 -2.9 16 12.0 SSW 17 32 9 17 1017.2 1016.4 0.0
25/02:00pm 24.4 19.4 -1.4 18 11.6 SW 15 24 8 13 1017.6 1016.8 0.0
25/01:30pm 23.9 17.8 0.3 21 11.0 SSE 22 33 12 18 1017.9 1017.1 0.0
25/01:00pm 22.8 17.0 0.0 22 10.4 SSW 20 33 11 18 1018.3 1017.5 0.0
25/12:30pm 22.2 15.7 0.1 23 10.1 S 24 28 13 15 1018.6 1017.8 0.0
25/12:00pm 21.3 15.8 0.5 25 9.5 S 19 30 10 16 1018.8 1018.0 0.0
25/11:30am 20.3 15.1 2.6 31 8.4 SSW 19 30 10 16 1019.0 1018.2 0.0
25/11:00am 19.6 15.0 3.7 35 7.6 SSW 17 28 9 15 1019.0 1018.2 0.0
25/10:30am 18.1 12.7 2.4 35 7.3 SSE 20 24 11 13 1019.2 1018.4 0.0
25/10:00am 17.2 11.7 3.8 41 6.3 S 22 28 12 15 1019.2 1018.4 0.0
25/09:30am 16.0 10.4 3.4 43 5.8 S 22 30 12 16 1018.9 1018.1 0.0
25/09:00am 15.6 8.9 3.4 44 5.6 S 28 37 15 20 1018.7 1017.9 0.0
25/08:30am 15.4 8.0 4.2 47 5.3 S 32 41 17 22 1018.5 1017.7 0.0
25/08:00am 15.0 9.1 5.8 54 4.4 S 26 37 14 20 1018.3 1017.5 0.0
25/07:30am 14.7 8.5 6.3 57 4.1 S 28 35 15 19 1017.7 1016.9 0.0
25/07:00am 14.8 9.4 6.4 57 4.1 SSW 24 33 13 18 1017.0 1016.2 0.0
25/06:30am 15.2 8.5 5.7 53 4.6 SSW 30 44 16 24 1016.3 1015.5 0.0
25/06:10am 15.7 8.6 5.3 50 5.0 SSW 32 50 17 27 1016.1 1015.3 0.0
25/06:00am 15.9 9.6 5.8 51 4.9 SSW 28 43 15 23 1015.9 1015.1 0.0
25/05:30am 16.5 9.8 5.8 49 5.2 SSW 30 39 16 21 1015.2 1014.4 0.0
25/05:15am 16.9 10.7 6.1 49 5.3 SSW 28 48 15 26 1014.9 1014.1 0.0
25/05:00am 17.4 11.5 11.2 67 3.4 SSW 33 44 18 24 1014.5 1013.7 0.0
25/04:30am 18.3 15.1 14.2 77 2.4 SSW 24 35 13 19 1013.4 1012.5 0.0
25/04:00am 19.1 17.0 15.2 78 2.3 SW 20 28 11 15 1012.9 1012.1 0.0
25/03:30am 19.4 17.3 15.1 76 2.5 SW 20 30 11 16 1012.7 1011.9 0.0
25/03:00am 19.6 17.7 15.3 76 2.6 SW 19 30 10 16 1012.2 1011.4 0.0
25/02:30am 19.4 17.8 15.9 80 2.1 SW 19 24 10 13 1011.9 1011.1 0.0
25/02:00am 19.8 18.0 16.1 79 2.2 WSW 20 32 11 17 1012.0 1011.2 0.0
25/01:30am 20.1 18.0 16.3 79 2.3 W 22 30 12 16 1012.4 1011.6 0.0
25/01:00am 19.6 19.1 16.8 84 1.7 W 15 22 8 12 1011.9 1011.1 0.0
25/12:30am 19.3 19.8 17.4 89 1.2 W 11 13 6 7 1012.5 1011.7 0.0
25/12:00am 20.3 22.0 16.1 77 2.5 N 2 9 1 5 1012.0 1011.2 0.0
 
Date/Time
EDT
Temp
°C
App
Temp
°C
Dew
Point
Rel
Hum
%
Delta-T
°C
Wind Press
QNH
hPa
Press
MSL
hPa
Rain
since 9 am
mm
Dir
 
Spd
km/h
Gust
km/h
Spd
kts
Gust
kts
24/11:30pm 21.2 21.6 15.3 69 3.5 NE 7 11 4 6 1011.5 1010.7 0.0
24/11:00pm 21.7 23.4 15.1 66 4.0 CALM 0 4 0 2 1011.9 1011.1 0.0

Other Formats:

Comma delimited format used in spreadsheet applications
http://www.bom.gov.au/fwo/IDN60801/IDN60801.94715.axf

JavaScript Object Notation format (JSON) in row-major order
http://www.bom.gov.au/fwo/IDN60801/IDN60801.94715.json